sensor_id;sensor_type;location;lat;lon;timestamp;pressure;altitude;pressure_sealevel;temperature;humidity
18504;BME280;9381;54.244;10.074;2024-03-29T00:04:16;98769.03;;;9.51;100.00
18504;BME280;9381;54.244;10.074;2024-03-29T00:09:16;98770.81;;;9.67;100.00
18504;BME280;9381;54.244;10.074;2024-03-29T00:14:16;98762.66;;;9.62;100.00
18504;BME280;9381;54.244;10.074;2024-03-29T00:19:16;98773.06;;;9.48;100.00
18504;BME280;9381;54.244;10.074;2024-03-29T00:24:17;98778.69;;;9.42;100.00
18504;BME280;9381;54.244;10.074;2024-03-29T00:29:17;98781.84;;;9.34;100.00
18504;BME280;9381;54.244;10.074;2024-03-29T00:34:17;98783.47;;;9.35;100.00
18504;BME280;9381;54.244;10.074;2024-03-29T00:39:18;98791.41;;;9.20;100.00
18504;BME280;9381;54.244;10.074;2024-03-29T00:44:18;98782.63;;;9.08;100.00
18504;BME280;9381;54.244;10.074;2024-03-29T00:49:18;98786.81;;;9.20;100.00
18504;BME280;9381;54.244;10.074;2024-03-29T00:54:22;98784.88;;;9.16;100.00
18504;BME280;9381;54.244;10.074;2024-03-29T00:59:24;98796.50;;;9.16;100.00
18504;BME280;9381;54.244;10.074;2024-03-29T01:04:24;98795.69;;;9.16;100.00
18504;BME280;9381;54.244;10.074;2024-03-29T01:09:24;98793.16;;;9.04;100.00
18504;BME280;9381;54.244;10.074;2024-03-29T01:14:25;98785.09;;;9.09;100.00
18504;BME280;9381;54.244;10.074;2024-03-29T01:19:25;98800.94;;;9.01;100.00
18504;BME280;9381;54.244;10.074;2024-03-29T01:24:25;98795.41;;;8.91;100.00
18504;BME280;9381;54.244;10.074;2024-03-29T01:29:26;98793.63;;;9.01;100.00
18504;BME280;9381;54.244;10.074;2024-03-29T01:34:26;98793.66;;;8.80;100.00
18504;BME280;9381;54.244;10.074;2024-03-29T01:39:26;98800.84;;;8.96;100.00
18504;BME280;9381;54.244;10.074;2024-03-29T01:44:31;98794.59;;;8.90;100.00
18504;BME280;9381;54.244;10.074;2024-03-29T01:49:31;98799.13;;;8.85;100.00
18504;BME280;9381;54.244;10.074;2024-03-29T01:54:32;98795.16;;;8.71;100.00
18504;BME280;9381;54.244;10.074;2024-03-29T01:59:33;98795.63;;;8.63;100.00
18504;BME280;9381;54.244;10.074;2024-03-29T02:04:35;98803.75;;;8.68;100.00
18504;BME280;9381;54.244;10.074;2024-03-29T02:09:36;98800.72;;;8.43;100.00
18504;BME280;9381;54.244;10.074;2024-03-29T02:14:36;98808.94;;;8.53;100.00
18504;BME280;9381;54.244;10.074;2024-03-29T02:19:36;98805.81;;;8.61;100.00
18504;BME280;9381;54.244;10.074;2024-03-29T02:24:37;98820.63;;;8.59;100.00
18504;BME280;9381;54.244;10.074;2024-03-29T02:29:37;98816.59;;;8.61;100.00
18504;BME280;9381;54.244;10.074;2024-03-29T02:34:37;98817.09;;;8.58;100.00
18504;BME280;9381;54.244;10.074;2024-03-29T02:39:38;98817.41;;;8.62;100.00
18504;BME280;9381;54.244;10.074;2024-03-29T02:44:38;98818.97;;;8.57;100.00
18504;BME280;9381;54.244;10.074;2024-03-29T02:49:38;98824.81;;;8.50;100.00
18504;BME280;9381;54.244;10.074;2024-03-29T02:54:40;98835.19;;;8.41;100.00
18504;BME280;9381;54.244;10.074;2024-03-29T02:59:41;98833.03;;;8.43;100.00
18504;BME280;9381;54.244;10.074;2024-03-29T03:04:41;98833.56;;;8.40;100.00
18504;BME280;9381;54.244;10.074;2024-03-29T03:09:42;98834.78;;;8.33;100.00
18504;BME280;9381;54.244;10.074;2024-03-29T03:15:00;98838.56;;;8.32;100.00
18504;BME280;9381;54.244;10.074;2024-03-29T03:20:01;98847.09;;;8.29;100.00
18504;BME280;9381;54.244;10.074;2024-03-29T03:25:01;98838.78;;;8.30;100.00
18504;BME280;9381;54.244;10.074;2024-03-29T03:30:02;98826.31;;;8.24;100.00
18504;BME280;9381;54.244;10.074;2024-03-29T03:35:03;98822.25;;;8.43;100.00
18504;BME280;9381;54.244;10.074;2024-03-29T03:40:03;98809.00;;;8.37;100.00
18504;BME280;9381;54.244;10.074;2024-03-29T03:45:04;98809.72;;;8.32;100.00
18504;BME280;9381;54.244;10.074;2024-03-29T03:50:05;98802.06;;;8.41;100.00
18504;BME280;9381;54.244;10.074;2024-03-29T03:55:05;98799.50;;;8.34;100.00
18504;BME280;9381;54.244;10.074;2024-03-29T04:00:06;98803.59;;;8.37;100.00
18504;BME280;9381;54.244;10.074;2024-03-29T04:05:07;98805.00;;;8.39;100.00
18504;BME280;9381;54.244;10.074;2024-03-29T04:10:08;98812.38;;;8.27;100.00
18504;BME280;9381;54.244;10.074;2024-03-29T04:15:08;98830.16;;;8.28;100.00
18504;BME280;9381;54.244;10.074;2024-03-29T04:20:09;98850.41;;;8.31;100.00
18504;BME280;9381;54.244;10.074;2024-03-29T04:25:09;98847.09;;;8.29;100.00
18504;BME280;9381;54.244;10.074;2024-03-29T04:30:10;98847.94;;;8.29;100.00
18504;BME280;9381;54.244;10.074;2024-03-29T04:35:10;98846.13;;;8.35;100.00
18504;BME280;9381;54.244;10.074;2024-03-29T04:40:11;98841.53;;;8.35;100.00
18504;BME280;9381;54.244;10.074;2024-03-29T04:45:11;98837.72;;;8.31;100.00
18504;BME280;9381;54.244;10.074;2024-03-29T04:50:12;98815.25;;;8.42;100.00
18504;BME280;9381;54.244;10.074;2024-03-29T04:55:12;98834.63;;;8.39;100.00
18504;BME280;9381;54.244;10.074;2024-03-29T05:00:13;98834.06;;;8.37;100.00
18504;BME280;9381;54.244;10.074;2024-03-29T05:05:13;98840.97;;;8.33;100.00
18504;BME280;9381;54.244;10.074;2024-03-29T05:10:14;98844.97;;;8.47;100.00
18504;BME280;9381;54.244;10.074;2024-03-29T05:15:15;98854.69;;;8.48;100.00
18504;BME280;9381;54.244;10.074;2024-03-29T05:20:16;98849.38;;;8.37;100.00
18504;BME280;9381;54.244;10.074;2024-03-29T05:25:16;98858.28;;;8.37;100.00
18504;BME280;9381;54.244;10.074;2024-03-29T05:30:17;98859.38;;;8.36;99.98
18504;BME280;9381;54.244;10.074;2024-03-29T05:35:17;98874.19;;;8.55;99.33
18504;BME280;9381;54.244;10.074;2024-03-29T05:40:17;98885.94;;;8.49;99.96
18504;BME280;9381;54.244;10.074;2024-03-29T05:45:29;98879.72;;;8.65;99.20
18504;BME280;9381;54.244;10.074;2024-03-29T05:50:30;98887.72;;;8.60;98.90
18504;BME280;9381;54.244;10.074;2024-03-29T05:55:30;98878.28;;;8.79;98.32
18504;BME280;9381;54.244;10.074;2024-03-29T06:00:30;98882.59;;;8.80;98.03
18504;BME280;9381;54.244;10.074;2024-03-29T06:05:32;98890.25;;;8.88;96.99
18504;BME280;9381;54.244;10.074;2024-03-29T06:10:32;98887.06;;;8.91;98.40
18504;BME280;9381;54.244;10.074;2024-03-29T06:15:33;98874.72;;;8.95;97.29
18504;BME280;9381;54.244;10.074;2024-03-29T06:20:52;98890.84;;;8.90;96.11
18504;BME280;9381;54.244;10.074;2024-03-29T06:25:53;98905.56;;;9.04;96.29
18504;BME280;9381;54.244;10.074;2024-03-29T06:30:53;98894.66;;;8.94;97.46
18504;BME280;9381;54.244;10.074;2024-03-29T06:35:54;98905.63;;;9.09;96.31
18504;BME280;9381;54.244;10.074;2024-03-29T06:40:55;98914.16;;;9.01;97.08
18504;BME280;9381;54.244;10.074;2024-03-29T06:45:55;98910.13;;;9.25;97.01
18504;BME280;9381;54.244;10.074;2024-03-29T06:50:57;98918.81;;;9.27;97.18
18504;BME280;9381;54.244;10.074;2024-03-29T06:56:01;98925.25;;;9.26;96.30
18504;BME280;9381;54.244;10.074;2024-03-29T07:01:02;98921.63;;;9.37;95.93
18504;BME280;9381;54.244;10.074;2024-03-29T07:06:03;98917.47;;;9.51;95.03
18504;BME280;9381;54.244;10.074;2024-03-29T07:11:03;98913.00;;;9.61;94.06
18504;BME280;9381;54.244;10.074;2024-03-29T07:16:04;98917.63;;;9.66;92.67
18504;BME280;9381;54.244;10.074;2024-03-29T07:21:05;98928.38;;;9.87;94.10
18504;BME280;9381;54.244;10.074;2024-03-29T07:26:05;98926.94;;;9.80;93.81
18504;BME280;9381;54.244;10.074;2024-03-29T07:31:06;98937.34;;;9.93;92.88
18504;BME280;9381;54.244;10.074;2024-03-29T07:36:07;98950.38;;;10.01;92.68
18504;BME280;9381;54.244;10.074;2024-03-29T07:41:10;98956.56;;;10.23;92.08
18504;BME280;9381;54.244;10.074;2024-03-29T07:46:10;98948.47;;;10.23;92.00
18504;BME280;9381;54.244;10.074;2024-03-29T07:51:11;98958.34;;;10.44;91.50
18504;BME280;9381;54.244;10.074;2024-03-29T07:56:11;98958.09;;;10.45;90.29
18504;BME280;9381;54.244;10.074;2024-03-29T08:01:20;98970.44;;;10.68;91.11
18504;BME280;9381;54.244;10.074;2024-03-29T08:06:21;98975.47;;;10.91;88.74
18504;BME280;9381;54.244;10.074;2024-03-29T08:11:23;98983.19;;;11.14;88.01
18504;BME280;9381;54.244;10.074;2024-03-29T08:16:23;98999.91;;;11.01;87.84
18504;BME280;9381;54.244;10.074;2024-03-29T08:21:24;99015.78;;;11.34;86.76
18504;BME280;9381;54.244;10.074;2024-03-29T08:26:27;99034.22;;;11.42;85.74
18504;BME280;9381;54.244;10.074;2024-03-29T08:31:29;99023.97;;;11.49;84.86
18504;BME280;9381;54.244;10.074;2024-03-29T08:36:29;99040.31;;;11.59;83.61
18504;BME280;9381;54.244;10.074;2024-03-29T08:41:29;99037.38;;;11.75;83.90
18504;BME280;9381;54.244;10.074;2024-03-29T08:46:30;99029.56;;;11.78;83.44
18504;BME280;9381;54.244;10.074;2024-03-29T08:51:30;99037.09;;;11.71;82.73
18504;BME280;9381;54.244;10.074;2024-03-29T08:56:31;99038.19;;;11.70;82.64
18504;BME280;9381;54.244;10.074;2024-03-29T09:01:32;99027.75;;;11.99;84.44
18504;BME280;9381;54.244;10.074;2024-03-29T09:06:33;99026.06;;;11.83;84.15
18504;BME280;9381;54.244;10.074;2024-03-29T09:11:33;99029.34;;;11.90;83.50
18504;BME280;9381;54.244;10.074;2024-03-29T09:16:34;99041.53;;;11.92;82.42
18504;BME280;9381;54.244;10.074;2024-03-29T09:21:34;99040.38;;;11.78;83.47
18504;BME280;9381;54.244;10.074;2024-03-29T09:26:34;99039.34;;;11.84;83.61
18504;BME280;9381;54.244;10.074;2024-03-29T09:31:35;99057.78;;;11.92;83.87
18504;BME280;9381;54.244;10.074;2024-03-29T09:36:35;99049.13;;;11.95;83.19
18504;BME280;9381;54.244;10.074;2024-03-29T09:41:36;99051.81;;;11.85;83.21
18504;BME280;9381;54.244;10.074;2024-03-29T09:46:38;99036.59;;;11.79;82.72
18504;BME280;9381;54.244;10.074;2024-03-29T09:51:42;99051.22;;;11.73;82.94
18504;BME280;9381;54.244;10.074;2024-03-29T09:56:44;99043.16;;;11.93;82.81
18504;BME280;9381;54.244;10.074;2024-03-29T10:01:44;99034.81;;;12.05;84.03
18504;BME280;9381;54.244;10.074;2024-03-29T10:06:46;99020.34;;;11.79;83.91
18504;BME280;9381;54.244;10.074;2024-03-29T10:11:49;99017.09;;;11.77;84.19
18504;BME280;9381;54.244;10.074;2024-03-29T10:16:53;99005.75;;;11.90;85.69
18504;BME280;9381;54.244;10.074;2024-03-29T10:21:53;98993.56;;;11.88;86.70
18504;BME280;9381;54.244;10.074;2024-03-29T10:27:05;99000.38;;;12.00;87.66
18504;BME280;9381;54.244;10.074;2024-03-29T10:32:06;99007.69;;;12.00;87.67
18504;BME280;9381;54.244;10.074;2024-03-29T10:37:07;99010.72;;;12.23;88.44
18504;BME280;9381;54.244;10.074;2024-03-29T10:42:07;98987.16;;;12.34;87.85
18504;BME280;9381;54.244;10.074;2024-03-29T10:47:13;98988.53;;;12.46;86.12
18504;BME280;9381;54.244;10.074;2024-03-29T10:52:17;98974.97;;;12.51;84.36
18504;BME280;9381;54.244;10.074;2024-03-29T10:57:27;98983.13;;;12.46;84.41
18504;BME280;9381;54.244;10.074;2024-03-29T11:08:11;98976.59;;;12.42;82.82
18504;BME280;9381;54.244;10.074;2024-03-29T11:18:31;98991.50;;;12.25;83.91
18504;BME280;9381;54.244;10.074;2024-03-29T11:23:32;98983.91;;;12.27;84.36
18504;BME280;9381;54.244;10.074;2024-03-29T11:28:33;98977.66;;;12.26;85.41
18504;BME280;9381;54.244;10.074;2024-03-29T11:38:45;98989.00;;;12.08;86.71
18504;BME280;9381;54.244;10.074;2024-03-29T11:43:46;98992.81;;;12.12;88.39
18504;BME280;9381;54.244;10.074;2024-03-29T11:48:47;98997.16;;;12.23;88.75
18504;BME280;9381;54.244;10.074;2024-03-29T11:53:52;98987.97;;;12.19;89.51
18504;BME280;9381;54.244;10.074;2024-03-29T11:58:52;98980.63;;;12.05;91.05
18504;BME280;9381;54.244;10.074;2024-03-29T12:03:54;98982.25;;;12.16;90.97
18504;BME280;9381;54.244;10.074;2024-03-29T12:08:55;98977.66;;;12.21;91.20
18504;BME280;9381;54.244;10.074;2024-03-29T12:13:57;98989.28;;;12.07;91.16
18504;BME280;9381;54.244;10.074;2024-03-29T12:18:58;98987.97;;;12.19;90.94
18504;BME280;9381;54.244;10.074;2024-03-29T12:23:59;98990.41;;;12.41;90.93
18504;BME280;9381;54.244;10.074;2024-03-29T12:28:59;98987.97;;;12.34;89.61
18504;BME280;9381;54.244;10.074;2024-03-29T12:34:00;98992.88;;;12.57;91.42
18504;BME280;9381;54.244;10.074;2024-03-29T12:39:01;98988.53;;;12.71;90.99
18504;BME280;9381;54.244;10.074;2024-03-29T12:44:03;98979.31;;;12.97;90.05
18504;BME280;9381;54.244;10.074;2024-03-29T12:49:03;98988.97;;;13.48;91.78
18504;BME280;9381;54.244;10.074;2024-03-29T12:54:05;98991.75;;;13.23;86.83
18504;BME280;9381;54.244;10.074;2024-03-29T12:59:05;99000.91;;;13.47;87.73
18504;BME280;9381;54.244;10.074;2024-03-29T13:04:05;99001.53;;;13.09;88.04
18504;BME280;9381;54.244;10.074;2024-03-29T13:09:06;98984.66;;;13.37;89.65
18504;BME280;9381;54.244;10.074;2024-03-29T13:14:08;98981.88;;;13.52;88.03
18504;BME280;9381;54.244;10.074;2024-03-29T13:19:09;98996.16;;;13.78;88.68
18504;BME280;9381;54.244;10.074;2024-03-29T13:24:09;99011.13;;;13.70;88.37
18504;BME280;9381;54.244;10.074;2024-03-29T13:29:09;99007.91;;;13.68;87.69
18504;BME280;9381;54.244;10.074;2024-03-29T13:34:13;99004.59;;;13.76;86.39
18504;BME280;9381;54.244;10.074;2024-03-29T13:39:14;99025.78;;;13.79;86.06
18504;BME280;9381;54.244;10.074;2024-03-29T13:44:15;99028.47;;;13.84;86.21
18504;BME280;9381;54.244;10.074;2024-03-29T13:49:17;99028.84;;;14.16;84.35
18504;BME280;9381;54.244;10.074;2024-03-29T13:54:20;99035.09;;;13.58;84.51
18504;BME280;9381;54.244;10.074;2024-03-29T13:59:21;99049.53;;;13.44;85.75
18504;BME280;9381;54.244;10.074;2024-03-29T14:04:21;99057.59;;;13.69;87.15
18504;BME280;9381;54.244;10.074;2024-03-29T14:09:21;99051.31;;;13.78;86.35
18504;BME280;9381;54.244;10.074;2024-03-29T14:14:22;99055.09;;;13.87;85.29
18504;BME280;9381;54.244;10.074;2024-03-29T14:19:22;99049.97;;;13.76;85.23
18504;BME280;9381;54.244;10.074;2024-03-29T14:24:23;99056.75;;;13.78;85.76
18504;BME280;9381;54.244;10.074;2024-03-29T14:29:25;99070.56;;;13.92;86.30
18504;BME280;9381;54.244;10.074;2024-03-29T14:34:25;99072.97;;;13.98;85.22
18504;BME280;9381;54.244;10.074;2024-03-29T14:39:26;99055.31;;;14.06;84.45
18504;BME280;9381;54.244;10.074;2024-03-29T14:44:28;99030.38;;;14.42;83.39
18504;BME280;9381;54.244;10.074;2024-03-29T14:49:28;99039.00;;;14.06;83.72
18504;BME280;9381;54.244;10.074;2024-03-29T14:54:28;99047.94;;;14.11;84.60
18504;BME280;9381;54.244;10.074;2024-03-29T14:59:29;99040.84;;;14.10;84.76
18504;BME280;9381;54.244;10.074;2024-03-29T15:04:30;99052.38;;;13.92;85.30
18504;BME280;9381;54.244;10.074;2024-03-29T15:09:30;99061.00;;;14.04;85.71
18504;BME280;9381;54.244;10.074;2024-03-29T15:14:31;99060.53;;;13.92;85.52
18504;BME280;9381;54.244;10.074;2024-03-29T15:19:32;99055.50;;;14.24;85.76
18504;BME280;9381;54.244;10.074;2024-03-29T15:24:33;99058.19;;;14.29;85.01
18504;BME280;9381;54.244;10.074;2024-03-29T15:29:33;99067.63;;;14.42;85.33
18504;BME280;9381;54.244;10.074;2024-03-29T15:34:33;99085.94;;;14.16;84.97
18504;BME280;9381;54.244;10.074;2024-03-29T15:39:34;99089.22;;;14.23;85.72
18504;BME280;9381;54.244;10.074;2024-03-29T15:44:34;99090.38;;;14.02;85.83
18504;BME280;9381;54.244;10.074;2024-03-29T15:49:35;99094.72;;;13.98;86.59
18504;BME280;9381;54.244;10.074;2024-03-29T15:54:35;99109.41;;;13.97;87.36
18504;BME280;9381;54.244;10.074;2024-03-29T15:59:36;99094.09;;;14.16;87.06
18504;BME280;9381;54.244;10.074;2024-03-29T16:04:36;99079.97;;;14.24;85.93
18504;BME280;9381;54.244;10.074;2024-03-29T16:09:36;99119.66;;;14.15;86.24
18504;BME280;9381;54.244;10.074;2024-03-29T16:14:36;99126.13;;;14.34;87.17
18504;BME280;9381;54.244;10.074;2024-03-29T16:19:37;99104.84;;;14.51;86.88
18504;BME280;9381;54.244;10.074;2024-03-29T16:24:38;99122.47;;;14.59;86.12
18504;BME280;9381;54.244;10.074;2024-03-29T16:29:38;99123.28;;;14.59;85.31
18504;BME280;9381;54.244;10.074;2024-03-29T16:34:39;99121.72;;;14.48;85.89
18504;BME280;9381;54.244;10.074;2024-03-29T16:39:40;99136.72;;;14.41;87.11
18504;BME280;9381;54.244;10.074;2024-03-29T16:44:40;99141.94;;;14.27;86.37
18504;BME280;9381;54.244;10.074;2024-03-29T16:49:40;99138.09;;;14.38;86.64
18504;BME280;9381;54.244;10.074;2024-03-29T16:54:41;99124.00;;;14.16;86.65
18504;BME280;9381;54.244;10.074;2024-03-29T16:59:41;99145.22;;;14.29;89.44
18504;BME280;9381;54.244;10.074;2024-03-29T17:04:44;99144.69;;;14.12;88.76
18504;BME280;9381;54.244;10.074;2024-03-29T17:09:47;99153.97;;;14.01;89.24
18504;BME280;9381;54.244;10.074;2024-03-29T17:14:48;99165.97;;;13.85;90.71
18504;BME280;9381;54.244;10.074;2024-03-29T17:19:48;99161.63;;;13.84;91.92
18504;BME280;9381;54.244;10.074;2024-03-29T17:24:49;99175.22;;;13.84;92.42
18504;BME280;9381;54.244;10.074;2024-03-29T17:29:49;99180.13;;;13.77;92.68
18504;BME280;9381;54.244;10.074;2024-03-29T17:34:50;99190.47;;;13.65;92.73
18504;BME280;9381;54.244;10.074;2024-03-29T17:39:50;99180.16;;;13.57;93.20
18504;BME280;9381;54.244;10.074;2024-03-29T17:44:51;99189.91;;;13.43;92.90
18504;BME280;9381;54.244;10.074;2024-03-29T17:49:51;99191.00;;;13.27;93.05
18504;BME280;9381;54.244;10.074;2024-03-29T17:54:51;99207.81;;;13.09;92.93
18504;BME280;9381;54.244;10.074;2024-03-29T17:59:52;99214.03;;;12.95;93.89
18504;BME280;9381;54.244;10.074;2024-03-29T18:04:52;99213.16;;;12.74;94.46
18504;BME280;9381;54.244;10.074;2024-03-29T18:09:52;99225.25;;;12.52;94.07
18504;BME280;9381;54.244;10.074;2024-03-29T18:14:53;99250.34;;;12.27;94.72
18504;BME280;9381;54.244;10.074;2024-03-29T18:19:54;99257.03;;;12.10;97.90
18504;BME280;9381;54.244;10.074;2024-03-29T18:24:54;99271.91;;;12.07;98.01
18504;BME280;9381;54.244;10.074;2024-03-29T18:29:54;99277.25;;;11.97;96.79
18504;BME280;9381;54.244;10.074;2024-03-29T18:34:55;99288.47;;;11.74;97.73
18504;BME280;9381;54.244;10.074;2024-03-29T18:39:55;99284.00;;;11.59;97.59
18504;BME280;9381;54.244;10.074;2024-03-29T18:44:55;99297.66;;;11.47;97.79
18504;BME280;9381;54.244;10.074;2024-03-29T18:49:56;99291.03;;;11.33;97.79
18504;BME280;9381;54.244;10.074;2024-03-29T18:54:56;99313.06;;;11.20;97.71
18504;BME280;9381;54.244;10.074;2024-03-29T18:59:56;99303.47;;;11.08;98.37
18504;BME280;9381;54.244;10.074;2024-03-29T19:04:57;99308.06;;;11.07;98.64
18504;BME280;9381;54.244;10.074;2024-03-29T19:09:57;99307.34;;;10.90;98.66
18504;BME280;9381;54.244;10.074;2024-03-29T19:14:57;99324.56;;;10.84;100.00
18504;BME280;9381;54.244;10.074;2024-03-29T19:19:59;99313.06;;;10.94;100.00
18504;BME280;9381;54.244;10.074;2024-03-29T19:24:59;99322.38;;;10.81;100.00
18504;BME280;9381;54.244;10.074;2024-03-29T19:29:59;99318.66;;;10.66;100.00
18504;BME280;9381;54.244;10.074;2024-03-29T19:35:00;99334.00;;;10.60;100.00
18504;BME280;9381;54.244;10.074;2024-03-29T19:40:00;99343.78;;;10.66;100.00
18504;BME280;9381;54.244;10.074;2024-03-29T19:45:01;99343.97;;;10.60;100.00
18504;BME280;9381;54.244;10.074;2024-03-29T19:50:02;99329.59;;;10.54;100.00
18504;BME280;9381;54.244;10.074;2024-03-29T19:55:03;99341.00;;;10.40;100.00
18504;BME280;9381;54.244;10.074;2024-03-29T20:00:05;99336.84;;;10.32;100.00
18504;BME280;9381;54.244;10.074;2024-03-29T20:05:06;99334.25;;;10.21;100.00
18504;BME280;9381;54.244;10.074;2024-03-29T20:10:07;99341.63;;;10.09;99.58
18504;BME280;9381;54.244;10.074;2024-03-29T20:15:07;99333.19;;;10.05;100.00
18504;BME280;9381;54.244;10.074;2024-03-29T20:20:08;99333.91;;;10.01;100.00
18504;BME280;9381;54.244;10.074;2024-03-29T20:25:10;99357.63;;;9.99;100.00
18504;BME280;9381;54.244;10.074;2024-03-29T20:30:11;99357.84;;;10.09;100.00
18504;BME280;9381;54.244;10.074;2024-03-29T20:35:11;99353.34;;;10.14;100.00
18504;BME280;9381;54.244;10.074;2024-03-29T20:40:12;99364.84;;;10.26;100.00
18504;BME280;9381;54.244;10.074;2024-03-29T20:45:14;99359.78;;;10.30;100.00
18504;BME280;9381;54.244;10.074;2024-03-29T20:50:14;99373.19;;;10.41;100.00
18504;BME280;9381;54.244;10.074;2024-03-29T20:55:14;99384.06;;;10.46;100.00
18504;BME280;9381;54.244;10.074;2024-03-29T21:00:15;99391.84;;;10.59;100.00
18504;BME280;9381;54.244;10.074;2024-03-29T21:05:15;99410.66;;;10.71;100.00
18504;BME280;9381;54.244;10.074;2024-03-29T21:10:33;99413.94;;;10.73;100.00
18504;BME280;9381;54.244;10.074;2024-03-29T21:15:33;99409.28;;;10.68;100.00
18504;BME280;9381;54.244;10.074;2024-03-29T21:20:33;99419.81;;;10.70;100.00
18504;BME280;9381;54.244;10.074;2024-03-29T21:25:34;99428.81;;;10.75;100.00
18504;BME280;9381;54.244;10.074;2024-03-29T21:30:34;99423.09;;;10.72;100.00
18504;BME280;9381;54.244;10.074;2024-03-29T21:35:34;99428.03;;;10.75;100.00
18504;BME280;9381;54.244;10.074;2024-03-29T21:40:35;99432.59;;;10.74;100.00
18504;BME280;9381;54.244;10.074;2024-03-29T21:45:35;99423.09;;;10.72;100.00
18504;BME280;9381;54.244;10.074;2024-03-29T21:50:35;99429.34;;;10.72;100.00
18504;BME280;9381;54.244;10.074;2024-03-29T21:55:36;99436.31;;;10.68;100.00
18504;BME280;9381;54.244;10.074;2024-03-29T22:00:36;99421.97;;;10.68;100.00
18504;BME280;9381;54.244;10.074;2024-03-29T22:05:36;99425.81;;;10.72;100.00
18504;BME280;9381;54.244;10.074;2024-03-29T22:10:41;99430.16;;;10.73;100.00
18504;BME280;9381;54.244;10.074;2024-03-29T22:15:41;99443.09;;;10.71;100.00
18504;BME280;9381;54.244;10.074;2024-03-29T22:20:42;99442.28;;;10.70;100.00
18504;BME280;9381;54.244;10.074;2024-03-29T22:25:42;99457.22;;;10.73;100.00
18504;BME280;9381;54.244;10.074;2024-03-29T22:30:42;99463.94;;;10.70;100.00
18504;BME280;9381;54.244;10.074;2024-03-29T22:35:43;99463.59;;;10.67;100.00
18504;BME280;9381;54.244;10.074;2024-03-29T22:40:48;99471.94;;;10.65;100.00
18504;BME280;9381;54.244;10.074;2024-03-29T22:45:48;99475.97;;;10.63;100.00
18504;BME280;9381;54.244;10.074;2024-03-29T22:50:49;99485.47;;;10.65;100.00
18504;BME280;9381;54.244;10.074;2024-03-29T22:55:50;99476.56;;;10.65;100.00
18504;BME280;9381;54.244;10.074;2024-03-29T23:00:50;99483.19;;;10.74;100.00
18504;BME280;9381;54.244;10.074;2024-03-29T23:05:51;99488.00;;;10.72;100.00
18504;BME280;9381;54.244;10.074;2024-03-29T23:10:52;99487.16;;;10.88;100.00
18504;BME280;9381;54.244;10.074;2024-03-29T23:15:52;99486.09;;;10.89;100.00
18504;BME280;9381;54.244;10.074;2024-03-29T23:20:54;99480.31;;;10.80;100.00
18504;BME280;9381;54.244;10.074;2024-03-29T23:25:55;99479.00;;;10.83;100.00
18504;BME280;9381;54.244;10.074;2024-03-29T23:30:55;99467.66;;;10.86;100.00
18504;BME280;9381;54.244;10.074;2024-03-29T23:35:56;99477.50;;;10.92;100.00
18504;BME280;9381;54.244;10.074;2024-03-29T23:40:58;99476.91;;;10.90;100.00
18504;BME280;9381;54.244;10.074;2024-03-29T23:46:03;99486.97;;;10.94;100.00
18504;BME280;9381;54.244;10.074;2024-03-29T23:51:04;99486.31;;;11.04;100.00
18504;BME280;9381;54.244;10.074;2024-03-29T23:56:05;99485.00;;;11.06;100.00
